Terminal Aerodrome Forecast
Issued by NWS

Home | Current Version | Previous Version | Graphics & Text | Print | Product List | Glossary On
Versions: 1 2 3 4 5 6 7 8 9 10 11 12 13 14 15 16 17 18 19 20 21 22 23 24 25 26 27 28 29 30 31 32 33 34 35 36
000
FTUS43 KABR 191400 AAE
TAFATY
TAF AMD
KATY 191418Z 1914/2012 31020G30KT P6SM BKN007 OVC040
      TEMPO 1914/1915 2SM -RA BR
     FM191500 33020G28KT P6SM OVC015
     FM191700 33025G35KT P6SM SCT250
     FM192000 32027G37KT P6SM VCSH BKN050
     FM200100 32018KT P6SM SKC=

USA.gov is the U.S. government's official web portal to all federal, state and local government web resources and services.